Aérodrome :
LOGIN :

S'inscrire | Disclaimer

   EN    FR    IT 

 










Légende :    VFR   VFR Marginal   IFR   IFR Intensif   IFR Très Intensif
Visi : 
Plafond : 
>= 8 km
>= 3000ft
5 à 8 km
1000 à 3000 ft
1500m à 5 km
500 à 1000 ft
800 à 1500m
200 à 500 ft
< 800m
< 200 ft
Symboles :   Orages  Brouillard  Fortes neiges  Fortes précipitations  Vent > 20 kt
SIGMETs :   Divers  Orages  Givrage  Turbulence  Onde Orograph.  Cendres Volcan.







- Altitude de l'aérodrome : 1487 ft
- Code IATA : MUC


EDDM - München Franz Josef Strauss

DERNIER METAR :
  • 240420Z VRB01KT 9999 MIFG NSC 11/10 Q1017 NOSIG

METARs EXPIRÉS :
  • 240350Z 10002KT 9999 MIFG NSC 11/10 Q1017 NOSIG
  • 240320Z 09002KT CAVOK 11/10 Q1017 NOSIG
  • 240250Z 10003KT CAVOK 11/10 Q1017 NOSIG
  • 240220Z VRB01KT CAVOK 11/11 Q1017 NOSIG
  • 240157Z VRB01KT CAVOK 11/11 Q1017 NOSIG
  • 240150Z VRB01KT CAVOK 11/11 Q1017 NOSIG

TAF TAF EDDM
Valide du 24 à 00h jusqu'au 25 à 06h UTC


232300Z 2400/2506 VRB03KT CAVOK
BECMG 2406/2408 24005KT
BECMG 2410/2412 27010KT
PROB30
TEMPO 2418/2423 27020G30KT TSRA BKN040CB
BECMG 2419/2421 24003KT
Pas de NOTAMs connus pour ce terrain.



MET'MAP, la Météo Aéronautique d'un coup d'oeil ! - Copyright ORBIFLY Décembre 2007 - Disclaimer

ORBIFLY MET'MAP TEAM :

Programmation & Développement : Alexandra Zaïnal
Conception & Développement : Baudouin d'Aumeries
Co-Programmation & Développement : Marc-Olivier Méhu
Soutien technique & logistique : Manuel Goepfert

Contact : metmap@orbifly.com




SOURCES & CREDITS :

   NOAA